Time;durP1;ratioP1;P1;durP2;ratioP2;P2;SDS_P1;SDS_P2;PMS_P1;PMS_P2;Temp;Humidity;BMP_temperature;BMP_pressure;BME280_temperature;BME280_humidity;BME280_pressure;Samples;Min_cycle;Max_cycle;Signal;HPM_P1;HPM_P2
2023/09/01 00:02:37;;;;;;;3.35;2.17;;;;;;;;;;10425315;22;20245;-62
2023/09/01 00:06:37;;;;;;;3.25;1.92;;;;;;;;;;10429299;22;20065;-62
2023/09/01 00:10:39;;;;;;;4.43;2.10;;;;;;;;;;10428687;22;19999;-62
2023/09/01 00:14:39;;;;;;;7.57;2.40;;;;;;;;;;10429884;22;20061;-62
2023/09/01 00:18:39;;;;;;;5.32;2.38;;;;;;;;;;10428912;22;20018;-62
2023/09/01 00:22:40;;;;;;;6.93;2.90;;;;;;;;;;10429550;22;20007;-63
2023/09/01 00:26:40;;;;;;;10.02;2.33;;;;;;;;;;10431302;22;20232;-62
2023/09/01 00:30:57;;;;;;;2.40;2.00;;;;;;;;;;10425507;22;20006;-63
2023/09/01 00:34:57;;;;;;;4.30;2.50;;;;;;;;;;10428398;22;20002;-62
2023/09/01 00:38:57;;;;;;;4.30;2.65;;;;;;;;;;10428793;22;20454;-62
2023/09/01 00:42:58;;;;;;;1.58;1.48;;;;;;;;;;10428996;22;20026;-63
2023/09/01 00:46:58;;;;;;;2.88;1.33;;;;;;;;;;10428638;22;20015;-62
2023/09/01 00:50:58;;;;;;;4.47;1.63;;;;;;;;;;10426835;22;20007;-63
2023/09/01 00:54:59;;;;;;;2.53;1.50;;;;;;;;;;10428993;22;19998;-63
2023/09/01 00:58:59;;;;;;;3.07;1.50;;;;;;;;;;10429787;22;20002;-63
2023/09/01 01:03:00;;;;;;;1.95;1.17;;;;;;;;;;10400626;22;20248;-63
2023/09/01 01:07:16;;;;;;;3.38;1.50;;;;;;;;;;10428765;22;20508;-63
2023/09/01 01:11:35;;;;;;;0.88;0.82;;;;;;;;;;10429164;22;20105;-63
2023/09/01 01:15:37;;;;;;;0.73;0.73;;;;;;;;;;10431923;22;20007;-63
2023/09/01 01:19:53;;;;;;;0.50;0.50;;;;;;;;;;10429475;22;20450;-63
2023/09/01 01:23:54;;;;;;;0.90;0.52;;;;;;;;;;10429845;22;20473;-63
2023/09/01 01:27:56;;;;;;;2.60;0.68;;;;;;;;;;10432624;22;20029;-63
2023/09/01 01:31:57;;;;;;;0.68;0.50;;;;;;;;;;10431631;22;20015;-63
2023/09/01 01:36:03;;;;;;;1.88;0.90;;;;;;;;;;10432973;22;19995;-63
2023/09/01 01:40:05;;;;;;;1.20;1.02;;;;;;;;;;10432144;22;20007;-63
2023/09/01 01:44:06;;;;;;;1.10;0.90;;;;;;;;;;10431848;22;20088;-63
2023/09/01 01:48:06;;;;;;;0.70;0.70;;;;;;;;;;10430125;22;20014;-64
2023/09/01 01:52:06;;;;;;;0.70;0.70;;;;;;;;;;10401991;22;20014;-64
2023/09/01 01:56:06;;;;;;;2.88;1.08;;;;;;;;;;10430696;22;20010;-63
2023/09/01 02:00:11;;;;;;;8.00;1.00;;;;;;;;;;10429318;22;19999;-63
2023/09/01 02:04:11;;;;;;;17.40;2.30;;;;;;;;;;10433594;22;20006;-63
2023/09/01 02:08:11;;;;;;;1.80;1.20;;;;;;;;;;10404807;22;20007;-63
2023/09/01 02:12:11;;;;;;;3.00;1.10;;;;;;;;;;10433822;22;20022;-64
2023/09/01 02:16:12;;;;;;;1.30;0.88;;;;;;;;;;10433252;22;21109;-63
2023/09/01 02:20:18;;;;;;;1.00;0.90;;;;;;;;;;10430900;22;20007;-64
2023/09/01 02:24:18;;;;;;;0.73;0.70;;;;;;;;;;10429778;22;20732;-63
2023/09/01 02:28:18;;;;;;;3.53;0.90;;;;;;;;;;10429762;22;20010;-63
2023/09/01 02:32:18;;;;;;;0.90;0.90;;;;;;;;;;10427911;22;20045;-63
2023/09/01 02:36:24;;;;;;;0.90;0.90;;;;;;;;;;10428609;22;20002;-63
2023/09/01 02:40:26;;;;;;;1.10;1.10;;;;;;;;;;10428070;22;20807;-63
2023/09/01 02:44:26;;;;;;;1.48;1.05;;;;;;;;;;10430117;22;20005;-63
2023/09/01 02:48:27;;;;;;;1.10;1.00;;;;;;;;;;10429283;22;20030;-63
2023/09/01 02:52:27;;;;;;;0.98;0.90;;;;;;;;;;10426201;22;20130;-63
2023/09/01 02:56:27;;;;;;;2.08;1.00;;;;;;;;;;10431008;22;20204;-63
2023/09/01 03:00:28;;;;;;;2.50;1.13;;;;;;;;;;10430105;22;21066;-64
2023/09/01 03:04:30;;;;;;;1.27;1.00;;;;;;;;;;10432247;22;20013;-63
2023/09/01 03:08:30;;;;;;;1.42;1.33;;;;;;;;;;10405291;22;20469;-63
2023/09/01 03:12:33;;;;;;;1.50;1.40;;;;;;;;;;10429275;22;20023;-63
2023/09/01 03:16:33;;;;;;;1.57;1.47;;;;;;;;;;10433935;22;20021;-63
2023/09/01 03:20:34;;;;;;;1.50;1.40;;;;;;;;;;10432652;22;20022;-63
2023/09/01 03:24:34;;;;;;;3.05;1.52;;;;;;;;;;10432474;22;20228;-63
2023/09/01 03:28:34;;;;;;;1.50;1.40;;;;;;;;;;10432949;22;20685;-63
2023/09/01 03:32:35;;;;;;;1.30;1.25;;;;;;;;;;10429073;22;20022;-63
2023/09/01 03:36:36;;;;;;;1.58;1.48;;;;;;;;;;10432587;22;20006;-63
2023/09/01 03:40:36;;;;;;;3.08;1.67;;;;;;;;;;10428905;22;20574;-63
2023/09/01 03:44:36;;;;;;;2.53;1.83;;;;;;;;;;10431303;22;20116;-63
2023/09/01 03:48:37;;;;;;;3.30;1.70;;;;;;;;;;10429029;22;20427;-64
2023/09/01 03:52:37;;;;;;;2.47;2.10;;;;;;;;;;10428176;22;20434;-63
2023/09/01 03:56:37;;;;;;;2.28;2.08;;;;;;;;;;10404783;22;19998;-63
2023/09/01 04:00:38;;;;;;;3.13;1.98;;;;;;;;;;10402204;22;20014;-63
2023/09/01 04:04:38;;;;;;;2.25;2.05;;;;;;;;;;10429797;22;20189;-63
2023/09/01 04:08:38;;;;;;;1.97;1.87;;;;;;;;;;10429696;22;20125;-63
2023/09/01 04:12:39;;;;;;;2.40;1.80;;;;;;;;;;10431342;22;20313;-63
2023/09/01 04:16:39;;;;;;;2.45;2.00;;;;;;;;;;10401543;22;20049;-63
2023/09/01 04:20:45;;;;;;;4.10;2.45;;;;;;;;;;10432192;22;20003;-63
2023/09/01 04:24:45;;;;;;;2.00;1.90;;;;;;;;;;10429162;22;20461;-63
2023/09/01 04:28:45;;;;;;;2.17;1.85;;;;;;;;;;10428537;22;20066;-63
2023/09/01 04:32:46;;;;;;;2.00;1.80;;;;;;;;;;10429607;22;20602;-63
2023/09/01 04:36:48;;;;;;;4.32;1.98;;;;;;;;;;10430418;22;20022;-63
2023/09/01 04:40:58;;;;;;;3.17;2.10;;;;;;;;;;10428058;22;19999;-63
2023/09/01 04:44:59;;;;;;;2.30;1.60;;;;;;;;;;10429515;22;20144;-63
2023/09/01 04:48:59;;;;;;;0.90;0.90;;;;;;;;;;10400145;22;20019;-63
2023/09/01 04:52:59;;;;;;;2.95;1.10;;;;;;;;;;10429297;22;20280;-63
2023/09/01 04:57:01;;;;;;;1.23;1.00;;;;;;;;;;10430051;22;19999;-63
2023/09/01 05:01:02;;;;;;;2.63;1.15;;;;;;;;;;10427005;22;20011;-63
2023/09/01 05:05:02;;;;;;;1.13;1.10;;;;;;;;;;10431567;22;20092;-63
2023/09/01 05:09:03;;;;;;;1.37;1.27;;;;;;;;;;10433396;22;20026;-63
2023/09/01 05:13:04;;;;;;;1.77;1.60;;;;;;;;;;10433672;22;20356;-63
2023/09/01 05:17:04;;;;;;;2.50;1.93;;;;;;;;;;10433470;22;20022;-64
2023/09/01 05:21:04;;;;;;;1.90;1.80;;;;;;;;;;10430421;22;20057;-63
2023/09/01 05:25:05;;;;;;;2.13;1.90;;;;;;;;;;10437116;22;20018;-64
2023/09/01 05:29:05;;;;;;;2.13;1.88;;;;;;;;;;10435857;22;19994;-63
2023/09/01 05:33:05;;;;;;;1.65;1.55;;;;;;;;;;10435282;22;20500;-63
2023/09/01 05:37:07;;;;;;;4.28;1.75;;;;;;;;;;10434922;22;20006;-63
2023/09/01 05:41:10;;;;;;;1.58;1.45;;;;;;;;;;10432678;22;20006;-63
2023/09/01 05:45:10;;;;;;;3.65;1.58;;;;;;;;;;10427130;22;20096;-64
2023/09/01 05:49:10;;;;;;;2.03;1.90;;;;;;;;;;10424316;22;20057;-63
2023/09/01 05:53:11;;;;;;;2.70;1.83;;;;;;;;;;10431171;22;20010;-64
2023/09/01 05:57:11;;;;;;;2.30;1.95;;;;;;;;;;10435201;22;20006;-63
2023/09/01 06:01:11;;;;;;;2.85;2.10;;;;;;;;;;10431827;22;20463;-63
2023/09/01 06:05:11;;;;;;;3.03;2.10;;;;;;;;;;10433620;22;20007;-63
2023/09/01 06:09:12;;;;;;;2.28;2.00;;;;;;;;;;10435212;22;20002;-64
2023/09/01 06:13:12;;;;;;;2.35;2.15;;;;;;;;;;10431630;22;19998;-63
2023/09/01 06:17:12;;;;;;;4.72;2.05;;;;;;;;;;10429580;22;20038;-63
2023/09/01 06:21:15;;;;;;;2.33;1.90;;;;;;;;;;10433013;22;20002;-63
2023/09/01 06:25:16;;;;;;;3.38;2.50;;;;;;;;;;10424253;22;19991;-64
2023/09/01 06:29:16;;;;;;;1.97;1.83;;;;;;;;;;10433424;22;20018;-63
2023/09/01 06:33:17;;;;;;;3.60;2.67;;;;;;;;;;10431838;22;20058;-63
2023/09/01 06:37:17;;;;;;;11.35;3.40;;;;;;;;;;10432073;22;20104;-63
2023/09/01 06:41:17;;;;;;;4.07;3.20;;;;;;;;;;10404018;22;20116;-63
2023/09/01 06:45:17;;;;;;;3.57;2.63;;;;;;;;;;10433262;22;20049;-64
2023/09/01 06:49:18;;;;;;;3.17;2.50;;;;;;;;;;10430026;22;20209;-63
2023/09/01 06:53:18;;;;;;;3.30;2.30;;;;;;;;;;10429691;22;20061;-63
2023/09/01 06:57:18;;;;;;;2.58;2.15;;;;;;;;;;10429059;22;19998;-63
2023/09/01 07:01:18;;;;;;;6.70;2.33;;;;;;;;;;10428123;22;20066;-64
2023/09/01 07:05:19;;;;;;;4.22;2.40;;;;;;;;;;10428825;22;20354;-63
2023/09/01 07:09:19;;;;;;;3.00;2.63;;;;;;;;;;10425732;22;19999;-64
2023/09/01 07:13:19;;;;;;;3.07;2.60;;;;;;;;;;10423829;22;20232;-63
2023/09/01 07:17:24;;;;;;;2.40;2.17;;;;;;;;;;10426727;22;20049;-63
2023/09/01 07:21:24;;;;;;;3.03;1.92;;;;;;;;;;10428070;22;19999;-63
2023/09/01 07:25:24;;;;;;;1.80;1.70;;;;;;;;;;10425986;22;20022;-63
2023/09/01 07:29:24;;;;;;;4.37;2.07;;;;;;;;;;10425064;22;20010;-63
2023/09/01 07:33:28;;;;;;;3.60;1.80;;;;;;;;;;10397175;22;20014;-63
2023/09/01 07:37:28;;;;;;;2.33;1.60;;;;;;;;;;10426821;22;20217;-63
2023/09/01 07:41:28;;;;;;;4.00;1.60;;;;;;;;;;10426081;22;20088;-63
2023/09/01 07:45:28;;;;;;;3.40;1.52;;;;;;;;;;10424965;22;20076;-63
2023/09/01 07:49:29;;;;;;;2.67;1.70;;;;;;;;;;10423227;22;20071;-63
2023/09/01 07:53:29;;;;;;;2.33;1.70;;;;;;;;;;10426538;22;20030;-64
2023/09/01 07:57:29;;;;;;;2.28;1.70;;;;;;;;;;10421414;22;20102;-65
2023/09/01 08:01:29;;;;;;;2.35;1.60;;;;;;;;;;10418406;22;20077;-63
2023/09/01 08:05:30;;;;;;;1.67;1.30;;;;;;;;;;10419477;22;20036;-63
2023/09/01 08:09:30;;;;;;;2.67;1.40;;;;;;;;;;10421396;22;20008;-64
2023/09/01 08:13:30;;;;;;;3.27;1.40;;;;;;;;;;10423627;22;19995;-63
2023/09/01 08:17:32;;;;;;;2.50;1.30;;;;;;;;;;10420117;22;20010;-63
2023/09/01 08:21:33;;;;;;;1.60;1.27;;;;;;;;;;10390792;22;20038;-63
2023/09/01 08:25:35;;;;;;;2.33;1.45;;;;;;;;;;10412929;22;19995;-63
2023/09/01 08:29:38;;;;;;;1.80;1.30;;;;;;;;;;10405309;22;20007;-63
2023/09/01 08:33:38;;;;;;;;;;;;;;;;;;10393026;22;20019;-63
2023/09/01 08:37:39;;;;;;;1.52;1.40;;;;;;;;;;10415448;22;20474;-63
2023/09/01 08:41:39;;;;;;;2.30;1.50;;;;;;;;;;10420154;22;20010;-63
2023/09/01 08:45:40;;;;;;;3.58;1.58;;;;;;;;;;10424056;22;20014;-63
2023/09/01 08:49:41;;;;;;;2.08;1.33;;;;;;;;;;10422764;22;20072;-63
2023/09/01 08:53:42;;;;;;;2.38;1.30;;;;;;;;;;10426254;22;20399;-63
2023/09/01 08:57:42;;;;;;;1.20;1.20;;;;;;;;;;10424947;22;20739;-63
2023/09/01 09:01:42;;;;;;;1.50;1.20;;;;;;;;;;10423293;22;20019;-63
2023/09/01 09:05:46;;;;;;;2.63;1.33;;;;;;;;;;10423587;22;20021;-63
2023/09/01 09:09:53;;;;;;;2.88;1.58;;;;;;;;;;10423867;22;20282;-64
2023/09/01 09:13:54;;;;;;;2.80;1.35;;;;;;;;;;10424330;22;20064;-63
2023/09/01 09:17:54;;;;;;;1.40;1.30;;;;;;;;;;10424601;22;20065;-63
2023/09/01 09:22:20;;;;;;;1.73;1.48;;;;;;;;;;10423586;22;20005;-63
2023/09/01 09:26:25;;;;;;;1.88;1.40;;;;;;;;;;10409190;22;20007;-63
2023/09/01 09:30:26;;;;;;;3.38;1.40;;;;;;;;;;10419599;22;20007;-64
2023/09/01 09:34:27;;;;;;;1.00;1.00;;;;;;;;;;10395486;22;20038;-64
2023/09/01 09:38:40;;;;;;;1.33;1.15;;;;;;;;;;10423863;22;20007;-63
2023/09/01 09:42:42;;;;;;;1.70;1.30;;;;;;;;;;10396085;22;20682;-63
2023/09/01 09:46:44;;;;;;;1.25;1.10;;;;;;;;;;10424342;22;20022;-63
2023/09/01 09:50:46;;;;;;;1.10;1.07;;;;;;;;;;10416952;22;20777;-63
2023/09/01 09:54:47;;;;;;;1.77;1.20;;;;;;;;;;10419643;22;20018;-63
2023/09/01 09:58:49;;;;;;;1.30;1.15;;;;;;;;;;10419900;22;20374;-63
2023/09/01 10:02:52;;;;;;;1.10;1.00;;;;;;;;;;10418168;22;20035;-63
2023/09/01 10:06:54;;;;;;;1.15;1.05;;;;;;;;;;10415001;22;20662;-63
2023/09/01 10:10:56;;;;;;;1.10;0.98;;;;;;;;;;10410851;22;20006;-63
2023/09/01 10:14:57;;;;;;;0.90;0.90;;;;;;;;;;10423409;22;20440;-63
2023/09/01 10:18:59;;;;;;;0.95;0.90;;;;;;;;;;10422460;22;20672;-63
2023/09/01 10:23:07;;;;;;;1.60;0.90;;;;;;;;;;10423180;22;20427;-63
2023/09/01 10:27:08;;;;;;;0.80;0.80;;;;;;;;;;10424415;22;19998;-63
2023/09/01 10:31:19;;;;;;;1.80;0.70;;;;;;;;;;10422372;22;20104;-63
2023/09/01 10:35:40;;;;;;;0.70;0.70;;;;;;;;;;10423614;22;19998;-63
2023/09/01 10:39:40;;;;;;;0.77;0.60;;;;;;;;;;10393386;22;20750;-63
2023/09/01 10:43:41;;;;;;;0.90;0.70;;;;;;;;;;10424824;22;19995;-64
2023/09/01 10:47:42;;;;;;;1.92;0.70;;;;;;;;;;10423325;22;20015;-63
2023/09/01 10:51:43;;;;;;;2.35;0.80;;;;;;;;;;10419825;22;20025;-63
2023/09/01 10:56:02;;;;;;;1.10;0.75;;;;;;;;;;10395504;22;20317;-63
2023/09/01 11:00:22;;;;;;;1.27;0.70;;;;;;;;;;10423180;22;20002;-63
2023/09/01 11:04:24;;;;;;;1.00;0.80;;;;;;;;;;10424003;22;20133;-63
2023/09/01 11:08:25;;;;;;;0.80;0.80;;;;;;;;;;10396421;22;20013;-63
2023/09/01 11:12:26;;;;;;;1.02;0.68;;;;;;;;;;10419415;22;20026;-63
2023/09/01 11:16:27;;;;;;;0.60;0.60;;;;;;;;;;10421195;22;20672;-64
2023/09/01 11:20:29;;;;;;;0.75;0.75;;;;;;;;;;10419084;22;20099;-64
2023/09/01 11:24:29;;;;;;;1.63;0.75;;;;;;;;;;10414006;22;20014;-64
2023/09/01 11:28:29;;;;;;;1.05;0.80;;;;;;;;;;10421976;22;20346;-63
2023/09/01 11:32:29;;;;;;;2.10;0.80;;;;;;;;;;10422694;22;20468;-64
2023/09/01 11:36:30;;;;;;;2.90;1.00;;;;;;;;;;10423396;22;20209;-63
2023/09/01 11:40:32;;;;;;;0.85;0.80;;;;;;;;;;10423804;22;20007;-63
2023/09/01 11:44:32;;;;;;;0.80;0.80;;;;;;;;;;10421016;22;19995;-63
2023/09/01 11:48:33;;;;;;;3.30;0.83;;;;;;;;;;10420202;22;20018;-63
2023/09/01 11:52:49;;;;;;;1.92;1.02;;;;;;;;;;10424406;22;20304;-63
2023/09/01 11:56:50;;;;;;;1.40;1.30;;;;;;;;;;10423262;22;20762;-63
2023/09/01 12:00:51;;;;;;;1.35;1.10;;;;;;;;;;10424015;22;20011;-64
2023/09/01 12:04:51;;;;;;;1.20;1.05;;;;;;;;;;10425523;22;20094;-63
2023/09/01 12:09:08;;;;;;;1.30;1.20;;;;;;;;;;10398281;22;20035;-62
2023/09/01 12:13:09;;;;;;;1.38;1.20;;;;;;;;;;10391303;22;20497;-63
2023/09/01 12:17:16;;;;;;;1.73;1.08;;;;;;;;;;10417926;22;20014;-63
2023/09/01 12:21:16;;;;;;;1.33;1.10;;;;;;;;;;10424550;22;20007;-63
2023/09/01 12:25:17;;;;;;;2.83;1.00;;;;;;;;;;10424375;22;19995;-62
2023/09/01 12:29:17;;;;;;;2.92;1.00;;;;;;;;;;10424814;22;20225;-65
2023/09/01 12:33:18;;;;;;;1.30;1.17;;;;;;;;;;10423378;22;20022;-63
2023/09/01 12:37:18;;;;;;;3.30;1.37;;;;;;;;;;10425694;22;20635;-62
2023/09/01 12:41:18;;;;;;;1.00;0.82;;;;;;;;;;10425588;22;20306;-62
2023/09/01 12:45:18;;;;;;;2.53;0.87;;;;;;;;;;10425489;22;19995;-63
2023/09/01 12:49:19;;;;;;;1.75;1.00;;;;;;;;;;10421722;22;20221;-63
2023/09/01 12:53:19;;;;;;;1.60;0.90;;;;;;;;;;10395529;22;20007;-63
2023/09/01 12:57:19;;;;;;;1.65;0.95;;;;;;;;;;10422275;22;19999;-63
2023/09/01 13:01:19;;;;;;;0.95;0.90;;;;;;;;;;10423965;22;20248;-63
2023/09/01 13:05:21;;;;;;;1.77;1.10;;;;;;;;;;10422835;22;20034;-63
2023/09/01 13:09:21;;;;;;;1.57;1.10;;;;;;;;;;10424065;22;19999;-63
2023/09/01 13:13:21;;;;;;;2.42;0.80;;;;;;;;;;10414989;22;20696;-62
2023/09/01 13:17:23;;;;;;;1.03;0.90;;;;;;;;;;10422189;22;20015;-62
2023/09/01 13:21:23;;;;;;;1.08;0.90;;;;;;;;;;10422673;22;20014;-63
2023/09/01 13:25:23;;;;;;;1.20;1.07;;;;;;;;;;10428214;22;19995;-63
2023/09/01 13:29:24;;;;;;;1.42;1.00;;;;;;;;;;10430074;22;20225;-64
2023/09/01 13:33:24;;;;;;;3.13;1.15;;;;;;;;;;10429441;22;20076;-63
2023/09/01 13:37:24;;;;;;;3.13;0.90;;;;;;;;;;10432168;22;20457;-63
2023/09/01 13:41:25;;;;;;;1.95;0.90;;;;;;;;;;10424789;22;19999;-63
2023/09/01 13:45:25;;;;;;;1.83;0.97;;;;;;;;;;10429747;22;20007;-62
2023/09/01 13:49:25;;;;;;;1.52;0.88;;;;;;;;;;10428038;22;20356;-63
2023/09/01 13:53:26;;;;;;;0.93;0.77;;;;;;;;;;10401035;22;20158;-63
2023/09/01 13:57:26;;;;;;;1.80;0.90;;;;;;;;;;10430029;22;20315;-64
2023/09/01 14:01:26;;;;;;;2.67;0.90;;;;;;;;;;10426262;22;20027;-62
2023/09/01 14:05:26;;;;;;;3.28;0.90;;;;;;;;;;10426997;22;20813;-63
2023/09/01 14:09:27;;;;;;;0.80;0.77;;;;;;;;;;10426415;22;20006;-63
2023/09/01 14:13:27;;;;;;;2.00;0.70;;;;;;;;;;10426536;22;20225;-63
2023/09/01 14:17:27;;;;;;;0.70;0.70;;;;;;;;;;10430366;22;20014;-63
2023/09/01 14:21:27;;;;;;;3.13;0.80;;;;;;;;;;10432042;22;20110;-63
2023/09/01 14:25:28;;;;;;;1.98;0.88;;;;;;;;;;10430526;22;20534;-63
2023/09/01 14:29:34;;;;;;;0.85;0.73;;;;;;;;;;10431189;22;20304;-63
2023/09/01 14:33:35;;;;;;;1.20;0.70;;;;;;;;;;10434235;22;20018;-63
2023/09/01 14:37:35;;;;;;;2.10;0.90;;;;;;;;;;10404721;22;20789;-63
2023/09/01 14:41:35;;;;;;;1.55;0.70;;;;;;;;;;10433980;22;19995;-63
2023/09/01 14:45:37;;;;;;;0.70;0.60;;;;;;;;;;10432340;22;20010;-63
2023/09/01 14:49:37;;;;;;;1.50;0.80;;;;;;;;;;10432659;22;20026;-63
2023/09/01 14:53:37;;;;;;;1.05;0.70;;;;;;;;;;10432426;22;20343;-62
2023/09/01 14:57:38;;;;;;;1.45;0.80;;;;;;;;;;10433849;22;20030;-62
2023/09/01 15:01:39;;;;;;;1.20;0.70;;;;;;;;;;10430791;22;20025;-62
2023/09/01 15:05:40;;;;;;;1.92;0.60;;;;;;;;;;10405532;22;20010;-62
2023/09/01 15:09:40;;;;;;;0.77;0.70;;;;;;;;;;10432386;22;19999;-63
2023/09/01 15:13:40;;;;;;;1.20;0.80;;;;;;;;;;10433183;22;19999;-62
2023/09/01 15:17:40;;;;;;;1.80;0.70;;;;;;;;;;10432948;22;20571;-64
2023/09/01 15:21:40;;;;;;;2.08;0.88;;;;;;;;;;10432860;22;19999;-63
2023/09/01 15:25:41;;;;;;;0.80;0.63;;;;;;;;;;10430367;22;20005;-63
2023/09/01 15:29:41;;;;;;;1.03;0.80;;;;;;;;;;10431512;22;20283;-62
2023/09/01 15:33:41;;;;;;;1.23;0.60;;;;;;;;;;10403053;22;20323;-63
2023/09/01 15:37:41;;;;;;;1.58;0.80;;;;;;;;;;10430150;22;20613;-62
2023/09/01 15:41:42;;;;;;;0.70;0.70;;;;;;;;;;10430794;22;20006;-62
2023/09/01 15:45:45;;;;;;;1.65;0.80;;;;;;;;;;10432132;22;20011;-63
2023/09/01 15:49:48;;;;;;;1.50;0.70;;;;;;;;;;10429796;22;20150;-63
2023/09/01 15:53:48;;;;;;;1.20;0.70;;;;;;;;;;10427986;22;20082;-62
2023/09/01 15:57:48;;;;;;;0.88;0.70;;;;;;;;;;10431406;22;20221;-62
2023/09/01 16:01:48;;;;;;;0.82;0.80;;;;;;;;;;10428763;22;20037;-62
2023/09/01 16:05:49;;;;;;;1.02;0.80;;;;;;;;;;10430402;22;20029;-63
2023/09/01 16:09:49;;;;;;;3.03;0.70;;;;;;;;;;10430167;22;19995;-63
2023/09/01 16:13:50;;;;;;;0.70;0.70;;;;;;;;;;10430551;22;20002;-63
2023/09/01 16:17:51;;;;;;;1.50;0.80;;;;;;;;;;10429757;22;20668;-62
2023/09/01 16:21:51;;;;;;;0.95;0.80;;;;;;;;;;10401547;22;20269;-62
2023/09/01 16:25:55;;;;;;;0.80;0.80;;;;;;;;;;10429614;22;20007;-63
2023/09/01 16:29:55;;;;;;;1.42;0.80;;;;;;;;;;10430233;22;19999;-62
2023/09/01 16:33:55;;;;;;;0.98;0.80;;;;;;;;;;10430188;22;20443;-62
2023/09/01 16:37:55;;;;;;;0.75;0.75;;;;;;;;;;10431342;22;20034;-62
2023/09/01 16:41:58;;;;;;;1.50;0.75;;;;;;;;;;10429378;22;20256;-62
2023/09/01 16:45:58;;;;;;;2.83;1.00;;;;;;;;;;10428831;22;20114;-63
2023/09/01 16:49:59;;;;;;;1.88;0.73;;;;;;;;;;10427068;22;19999;-66
2023/09/01 16:53:59;;;;;;;1.17;0.80;;;;;;;;;;10429648;22;20030;-62
2023/09/01 16:58:02;;;;;;;0.95;0.70;;;;;;;;;;10432562;22;19999;-62
2023/09/01 17:02:03;;;;;;;1.73;0.80;;;;;;;;;;10432896;22;20019;-62
2023/09/01 17:06:03;;;;;;;3.13;0.80;;;;;;;;;;10434017;22;19998;-63
2023/09/01 17:10:05;;;;;;;2.65;0.82;;;;;;;;;;10430611;22;20009;-63
2023/09/01 17:14:05;;;;;;;1.13;0.95;;;;;;;;;;10434395;22;19999;-63
2023/09/01 17:18:06;;;;;;;1.23;0.80;;;;;;;;;;10433457;22;20038;-63
2023/09/01 17:22:06;;;;;;;0.95;0.80;;;;;;;;;;10431735;22;20003;-64
2023/09/01 17:26:06;;;;;;;0.75;0.75;;;;;;;;;;10402355;22;20086;-63
2023/09/01 17:30:07;;;;;;;1.10;0.80;;;;;;;;;;10427974;22;20112;-63
2023/09/01 17:34:07;;;;;;;1.65;0.70;;;;;;;;;;10423301;22;20040;-63
2023/09/01 17:38:07;;;;;;;1.50;0.80;;;;;;;;;;10424209;22;20380;-62
2023/09/01 17:42:08;;;;;;;2.03;0.83;;;;;;;;;;10425399;22;20189;-63
2023/09/01 17:46:08;;;;;;;0.80;0.80;;;;;;;;;;10423068;22;20014;-62
2023/09/01 17:50:09;;;;;;;1.63;0.80;;;;;;;;;;10422654;22;20029;-63
2023/09/01 17:54:09;;;;;;;1.98;0.90;;;;;;;;;;10424418;22;20010;-62
2023/09/01 17:58:10;;;;;;;0.73;0.73;;;;;;;;;;10423763;22;20009;-62
2023/09/01 18:02:10;;;;;;;1.33;0.77;;;;;;;;;;10421223;22;20030;-62
2023/09/01 18:06:11;;;;;;;1.05;0.80;;;;;;;;;;10425969;22;19999;-62
2023/09/01 18:10:11;;;;;;;1.65;0.82;;;;;;;;;;10422421;22;20474;-62
2023/09/01 18:14:11;;;;;;;1.33;0.82;;;;;;;;;;10422213;22;20049;-63
2023/09/01 18:18:12;;;;;;;1.50;0.75;;;;;;;;;;10422013;22;20010;-62
2023/09/01 18:22:12;;;;;;;1.23;1.00;;;;;;;;;;10423474;22;20003;-63
2023/09/01 18:26:13;;;;;;;2.55;0.82;;;;;;;;;;10419565;22;20218;-64
2023/09/01 18:30:14;;;;;;;0.80;0.80;;;;;;;;;;10423525;22;20003;-62
2023/09/01 18:34:16;;;;;;;1.40;1.05;;;;;;;;;;10425377;22;20301;-62
2023/09/01 18:38:16;;;;;;;1.20;0.70;;;;;;;;;;10423535;22;20097;-63
2023/09/01 18:42:28;;;;;;;0.80;0.80;;;;;;;;;;10421858;22;19995;-62
2023/09/01 18:46:30;;;;;;;1.35;0.90;;;;;;;;;;10423060;22;20115;-62
2023/09/01 18:50:30;;;;;;;1.45;0.90;;;;;;;;;;10426940;22;20632;-62
2023/09/01 18:54:30;;;;;;;1.17;0.90;;;;;;;;;;10423559;22;20002;-62
2023/09/01 18:58:31;;;;;;;0.80;0.80;;;;;;;;;;10426119;22;20034;-63
2023/09/01 19:02:31;;;;;;;3.35;0.90;;;;;;;;;;10424498;22;20029;-62
2023/09/01 19:06:32;;;;;;;3.40;1.00;;;;;;;;;;10425258;22;20086;-63
2023/09/01 19:10:32;;;;;;;2.30;1.05;;;;;;;;;;10397412;22;20108;-63
2023/09/01 19:14:32;;;;;;;0.85;0.85;;;;;;;;;;10425057;22;20061;-63
2023/09/01 19:18:40;;;;;;;0.90;0.80;;;;;;;;;;10420737;22;20130;-62
2023/09/01 19:22:40;;;;;;;1.75;0.80;;;;;;;;;;10421680;22;19999;-63
2023/09/01 19:26:40;;;;;;;1.42;0.90;;;;;;;;;;10424566;22;20491;-62
2023/09/01 19:30:44;;;;;;;1.47;1.00;;;;;;;;;;10423101;22;20006;-63
2023/09/01 19:34:44;;;;;;;1.25;0.88;;;;;;;;;;10428249;22;20236;-63
2023/09/01 19:38:46;;;;;;;0.95;0.90;;;;;;;;;;10427697;22;19991;-63
2023/09/01 19:42:47;;;;;;;1.85;0.80;;;;;;;;;;10425049;22;20013;-63
2023/09/01 19:46:47;;;;;;;5.28;1.10;;;;;;;;;;10422664;22;20007;-63
2023/09/01 19:50:47;;;;;;;0.73;0.70;;;;;;;;;;10424658;22;20612;-63
2023/09/01 19:54:47;;;;;;;1.00;0.63;;;;;;;;;;10423548;22;20612;-63
2023/09/01 19:58:48;;;;;;;0.95;0.70;;;;;;;;;;10425402;22;20537;-63
2023/09/01 20:02:56;;;;;;;1.52;0.82;;;;;;;;;;10423984;22;20051;-63
2023/09/01 20:06:56;;;;;;;2.92;1.00;;;;;;;;;;10424477;22;20005;-62
2023/09/01 20:10:56;;;;;;;1.17;0.90;;;;;;;;;;10424956;22;20005;-62
2023/09/01 20:14:58;;;;;;;0.95;0.80;;;;;;;;;;10425502;22;19999;-63
2023/09/01 20:18:58;;;;;;;1.38;0.90;;;;;;;;;;10424636;22;20022;-62
2023/09/01 20:22:59;;;;;;;1.30;0.77;;;;;;;;;;10424903;22;19999;-63
2023/09/01 20:26:59;;;;;;;0.70;0.70;;;;;;;;;;10425935;22;19999;-63
2023/09/01 20:30:59;;;;;;;3.23;0.73;;;;;;;;;;10422507;22;20237;-63
2023/09/01 20:35:00;;;;;;;3.95;1.00;;;;;;;;;;10423589;22;20006;-63
2023/09/01 20:39:00;;;;;;;1.08;0.90;;;;;;;;;;10424840;22;20007;-63
2023/09/01 20:43:00;;;;;;;1.80;0.80;;;;;;;;;;10424137;22;20045;-63
2023/09/01 20:47:01;;;;;;;0.87;0.77;;;;;;;;;;10423303;22;20013;-63
2023/09/01 20:51:04;;;;;;;1.88;0.80;;;;;;;;;;10395415;22;20092;-63
2023/09/01 20:55:05;;;;;;;1.80;1.20;;;;;;;;;;10424492;22;20006;-62
2023/09/01 20:59:06;;;;;;;0.88;0.88;;;;;;;;;;10425213;22;20098;-62
2023/09/01 21:03:06;;;;;;;1.08;0.90;;;;;;;;;;10421193;22;20019;-63
2023/09/01 21:07:06;;;;;;;1.00;0.90;;;;;;;;;;10424520;22;20003;-63
2023/09/01 21:11:08;;;;;;;1.80;0.90;;;;;;;;;;10424377;22;20006;-62
2023/09/01 21:15:09;;;;;;;2.05;0.80;;;;;;;;;;10425492;22;20037;-63
2023/09/01 21:19:10;;;;;;;1.77;0.88;;;;;;;;;;10424806;22;20010;-63
2023/09/01 21:23:10;;;;;;;2.08;0.90;;;;;;;;;;10424553;22;20034;-63
2023/09/01 21:27:10;;;;;;;3.43;0.87;;;;;;;;;;10426535;22;19999;-63
2023/09/01 21:31:10;;;;;;;1.40;0.80;;;;;;;;;;10421998;22;20030;-62
2023/09/01 21:35:11;;;;;;;1.70;0.90;;;;;;;;;;10423416;22;20025;-63
2023/09/01 21:39:11;;;;;;;1.53;1.00;;;;;;;;;;10428297;22;20096;-62
2023/09/01 21:43:11;;;;;;;0.90;0.90;;;;;;;;;;10426467;22;20258;-62
2023/09/01 21:47:11;;;;;;;6.53;0.93;;;;;;;;;;10430768;22;20015;-62
2023/09/01 21:51:12;;;;;;;2.60;1.00;;;;;;;;;;10432957;22;20176;-63
2023/09/01 21:55:12;;;;;;;2.22;0.93;;;;;;;;;;10433499;22;20007;-63
2023/09/01 21:59:12;;;;;;;2.60;0.80;;;;;;;;;;10435453;22;20515;-63
2023/09/01 22:03:12;;;;;;;1.07;0.80;;;;;;;;;;10432190;22;20027;-62
2023/09/01 22:07:13;;;;;;;1.95;0.90;;;;;;;;;;10430833;22;20003;-63
2023/09/01 22:11:13;;;;;;;1.93;0.60;;;;;;;;;;10432084;22;20001;-63
2023/09/01 22:15:13;;;;;;;1.90;0.70;;;;;;;;;;10431051;22;20066;-63
2023/09/01 22:19:14;;;;;;;1.53;0.80;;;;;;;;;;10434599;22;20225;-63
2023/09/01 22:23:14;;;;;;;0.60;0.60;;;;;;;;;;10432340;22;20248;-64
2023/09/01 22:27:14;;;;;;;0.77;0.77;;;;;;;;;;10432635;22;20003;-62
2023/09/01 22:31:15;;;;;;;0.80;0.80;;;;;;;;;;10430641;22;20010;-63
2023/09/01 22:35:15;;;;;;;3.45;0.70;;;;;;;;;;10431720;22;19995;-63
2023/09/01 22:39:15;;;;;;;0.70;0.70;;;;;;;;;;10431787;22;20045;-63
2023/09/01 22:43:18;;;;;;;0.60;0.50;;;;;;;;;;10432501;22;20006;-63
2023/09/01 22:47:18;;;;;;;2.33;0.70;;;;;;;;;;10429710;22;20065;-63
2023/09/01 22:51:20;;;;;;;0.75;0.70;;;;;;;;;;10431563;22;20684;-63
2023/09/01 22:55:20;;;;;;;0.70;0.70;;;;;;;;;;10428252;22;20689;-62
2023/09/01 22:59:20;;;;;;;2.85;0.90;;;;;;;;;;10430941;22;20088;-63
2023/09/01 23:03:20;;;;;;;0.75;0.60;;;;;;;;;;10428175;22;20426;-66
2023/09/01 23:07:21;;;;;;;0.60;0.60;;;;;;;;;;10432798;22;19998;-63
2023/09/01 23:11:21;;;;;;;1.10;0.73;;;;;;;;;;10432093;22;20005;-64
2023/09/01 23:15:21;;;;;;;1.23;0.80;;;;;;;;;;10430629;22;20657;-63
2023/09/01 23:19:21;;;;;;;0.77;0.70;;;;;;;;;;10429121;22;20390;-63
2023/09/01 23:23:22;;;;;;;0.60;0.60;;;;;;;;;;10425068;22;20043;-63
2023/09/01 23:27:24;;;;;;;0.73;0.70;;;;;;;;;;10421960;22;19995;-64
2023/09/01 23:31:25;;;;;;;1.42;0.80;;;;;;;;;;10422046;22;20026;-64
2023/09/01 23:35:25;;;;;;;0.60;0.60;;;;;;;;;;10424081;22;20002;-63
2023/09/01 23:39:26;;;;;;;2.42;0.80;;;;;;;;;;10426180;22;20006;-63
2023/09/01 23:43:26;;;;;;;0.67;0.67;;;;;;;;;;10429374;22;20017;-63
2023/09/01 23:47:27;;;;;;;1.23;0.70;;;;;;;;;;10430036;22;20558;-63